Airfield :
LOGIN :

Register | Disclaimer

   EN    FR    IT 

 










Legend :    VFR   Marginal VFR   IFR   Intensive IFR   Very Intensive IFR
Visi :
Ceiling :
>= 8 km
>= 3000ft
5 to 8 km
1000 to 3000 ft
1500m to 5 km
500 to 1000 ft
800 to 1500m
200 to 500 ft
< 800m
< 200 ft
Symbols :   Thunderstorms  Fog  Heavy snow  Heavy precipitations  Wind > 20 kt
SIGMETs :     Misc.  Thunderstorms  Icing  Turbulence  Mountain Waves  Volcanic Ashes






- Airport Elevation : 51 ft
- IATA code : GWT


EDXW - Westerland-Sylt Island

CURRENT METAR :
  • 041220Z 25017KT 9999 SCT021 19/13 Q1016

EXPIRED METARs :
  • 041150Z 25016KT 9999 SCT020 19/14 Q1016
  • 041120Z 26014KT 9999 FEW020 19/14 Q1017
  • 041050Z 26013KT 9999 SCT020 18/14 Q1016
  • 041020Z 25011KT 210V270 9999 FEW014 BKN018 17/14 Q1016
  • 040950Z 24011KT 9999 -RA BKN017 14/13 Q1016

TAF TAF EDXW
Valid from the 04 at 12:00 until the 04 at 21:00 UTC


041100Z 0412/0421 24015KT CAVOK
BECMG 0412/0414 25020KT
PROB30
TEMPO 0414/0418 26020G30KT
BECMG 0418/0420 26015KT



MET'MAP, your aeronautical weather chart ! - Copyright ORBIFLY December 2007 - Disclaimer

ORBIFLY MET'MAP TEAM :

Programming & Development : Alexandra Zaïnal
Original concept : Baudouin d'Aumeries
Technical & hardware support : Manuel Goepfert
Assistance : Marc-Olivier Méhu




SOURCES & CREDITS :

   NOAA